sensor_id;sensor_type;location;lat;lon;timestamp;pressure;altitude;pressure_sealevel;temperature;humidity
53647;BME280;39550;52.230;5.194;2022-12-16T00:02:06;100908.00;;;-0.17;76.75
53647;BME280;39550;52.230;5.194;2022-12-16T00:04:33;100908.97;;;-0.15;76.41
53647;BME280;39550;52.230;5.194;2022-12-16T00:06:58;100910.69;;;-0.14;76.30
53647;BME280;39550;52.230;5.194;2022-12-16T00:09:24;100914.03;;;-0.15;76.62
53647;BME280;39550;52.230;5.194;2022-12-16T00:11:50;100913.22;;;-0.14;76.60
53647;BME280;39550;52.230;5.194;2022-12-16T00:14:15;100916.63;;;-0.13;76.47
53647;BME280;39550;52.230;5.194;2022-12-16T00:16:40;100912.28;;;-0.16;76.58
53647;BME280;39550;52.230;5.194;2022-12-16T00:19:06;100916.56;;;-0.15;76.23
53647;BME280;39550;52.230;5.194;2022-12-16T00:21:31;100916.56;;;-0.15;76.44
53647;BME280;39550;52.230;5.194;2022-12-16T00:23:57;100913.22;;;-0.14;76.56
53647;BME280;39550;52.230;5.194;2022-12-16T00:26:23;100911.31;;;-0.18;76.34
53647;BME280;39550;52.230;5.194;2022-12-16T00:28:48;100920.03;;;-0.13;76.37
53647;BME280;39550;52.230;5.194;2022-12-16T00:31:13;100919.16;;;-0.13;76.39
53647;BME280;39550;52.230;5.194;2022-12-16T00:33:39;100926.00;;;-0.12;76.84
53647;BME280;39550;52.230;5.194;2022-12-16T00:36:05;100916.47;;;-0.16;76.60
53647;BME280;39550;52.230;5.194;2022-12-16T00:38:31;100912.44;;;-0.13;76.41
53647;BME280;39550;52.230;5.194;2022-12-16T00:40:56;100919.09;;;-0.15;76.76
53647;BME280;39550;52.230;5.194;2022-12-16T00:43:22;100917.34;;;-0.16;76.51
53647;BME280;39550;52.230;5.194;2022-12-16T00:45:47;100913.06;;;-0.17;76.36
53647;BME280;39550;52.230;5.194;2022-12-16T00:48:14;100915.59;;;-0.17;76.73
53647;BME280;39550;52.230;5.194;2022-12-16T00:50:40;100920.03;;;-0.13;76.54
53647;BME280;39550;52.230;5.194;2022-12-16T00:53:05;100929.31;;;-0.13;76.91
53647;BME280;39550;52.230;5.194;2022-12-16T00:55:30;100927.56;;;-0.14;76.78
53647;BME280;39550;52.230;5.194;2022-12-16T00:57:57;100931.75;;;-0.15;76.56
53647;BME280;39550;52.230;5.194;2022-12-16T01:00:22;100945.34;;;-0.13;76.86
53647;BME280;39550;52.230;5.194;2022-12-16T01:02:49;100943.59;;;-0.14;76.95
53647;BME280;39550;52.230;5.194;2022-12-16T01:05:16;100945.34;;;-0.13;76.86
53647;BME280;39550;52.230;5.194;2022-12-16T01:07:42;100952.19;;;-0.12;76.69
53647;BME280;39550;52.230;5.194;2022-12-16T01:10:08;100951.31;;;-0.12;76.56
53647;BME280;39550;52.230;5.194;2022-12-16T01:12:35;100955.50;;;-0.13;76.62
53647;BME280;39550;52.230;5.194;2022-12-16T01:15:04;100960.56;;;-0.13;76.66
53647;BME280;39550;52.230;5.194;2022-12-16T01:17:29;100962.31;;;-0.12;77.14
53647;BME280;39550;52.230;5.194;2022-12-16T01:19:55;100961.53;;;-0.11;76.92
53647;BME280;39550;52.230;5.194;2022-12-16T01:22:21;100964.13;;;-0.09;76.63
53647;BME280;39550;52.230;5.194;2022-12-16T01:24:46;100968.16;;;-0.13;76.63
53647;BME280;39550;52.230;5.194;2022-12-16T01:27:12;100975.91;;;-0.10;77.15
53647;BME280;39550;52.230;5.194;2022-12-16T01:29:59;100987.78;;;-0.09;77.05
53647;BME280;39550;52.230;5.194;2022-12-16T01:32:35;100987.00;;;-0.08;77.06
53647;BME280;39550;52.230;5.194;2022-12-16T01:44:23;100994.44;;;-0.11;77.22
53647;BME280;39550;52.230;5.194;2022-12-16T01:46:54;101003.00;;;-0.09;77.17
53647;BME280;39550;52.230;5.194;2022-12-16T01:49:36;101001.44;;;-0.07;77.27
53647;BME280;39550;52.230;5.194;2022-12-16T01:52:04;101013.28;;;-0.06;76.71
53647;BME280;39550;52.230;5.194;2022-12-16T01:54:44;101007.34;;;-0.06;77.46
53647;BME280;39550;52.230;5.194;2022-12-16T01:57:15;101007.28;;;-0.08;76.98
53647;BME280;39550;52.230;5.194;2022-12-16T01:59:43;101009.09;;;-0.05;77.12
53647;BME280;39550;52.230;5.194;2022-12-16T02:02:11;101015.03;;;-0.05;77.23
53647;BME280;39550;52.230;5.194;2022-12-16T02:04:38;101014.88;;;-0.08;76.95
53647;BME280;39550;52.230;5.194;2022-12-16T02:07:23;101020.09;;;-0.05;77.30
53647;BME280;39550;52.230;5.194;2022-12-16T02:09:49;101023.53;;;-0.04;77.06
53647;BME280;39550;52.230;5.194;2022-12-16T02:12:20;101022.63;;;-0.05;77.17
53647;BME280;39550;52.230;5.194;2022-12-16T02:15:09;101026.91;;;-0.04;77.25
53647;BME280;39550;52.230;5.194;2022-12-16T02:23:06;101032.84;;;-0.03;77.56
53647;BME280;39550;52.230;5.194;2022-12-16T02:25:57;101035.31;;;-0.05;77.52
53647;BME280;39550;52.230;5.194;2022-12-16T02:39:50;101043.06;;;-0.02;77.52
53647;BME280;39550;52.230;5.194;2022-12-16T02:42:30;100989.63;;;-0.38;77.11
53647;BME280;39550;52.230;5.194;2022-12-16T02:45:00;100989.63;;;-0.38;77.02
53647;BME280;39550;52.230;5.194;2022-12-16T02:47:27;101048.94;;;-0.03;77.22
53647;BME280;39550;52.230;5.194;2022-12-16T02:49:53;100997.56;;;-0.31;77.47
53647;BME280;39550;52.230;5.194;2022-12-16T02:52:30;101009.53;;;-0.29;76.94
53647;BME280;39550;52.230;5.194;2022-12-16T02:55:00;101059.94;;;-0.02;77.44
53647;BME280;39550;52.230;5.194;2022-12-16T03:02:40;101060.78;;;-0.02;77.47
53647;BME280;39550;52.230;5.194;2022-12-16T03:05:20;100908.44;;;-1.04;77.40
53647;BME280;39550;52.230;5.194;2022-12-16T03:07:48;101075.22;;;-0.01;77.49
53647;BME280;39550;52.230;5.194;2022-12-16T03:10:18;100995.69;;;-0.50;77.36
53647;BME280;39550;52.230;5.194;2022-12-16T03:12:45;101018.59;;;-0.32;77.19
53647;BME280;39550;52.230;5.194;2022-12-16T03:15:14;101021.91;;;-0.33;77.59
53647;BME280;39550;52.230;5.194;2022-12-16T03:17:41;100916.97;;;-1.01;77.43
53647;BME280;39550;52.230;5.194;2022-12-16T03:20:14;101017.94;;;-0.45;77.39
53647;BME280;39550;52.230;5.194;2022-12-16T03:22:43;101013.47;;;-0.49;77.36
53647;BME280;39550;52.230;5.194;2022-12-16T03:25:10;101049.97;;;-0.30;77.30
53647;BME280;39550;52.230;5.194;2022-12-16T03:30:35;101108.16;;;-0.01;77.19
53647;BME280;39550;52.230;5.194;2022-12-16T03:33:20;101111.56;;;0.00;77.61
53647;BME280;39550;52.230;5.194;2022-12-16T03:36:10;101053.97;;;-0.34;77.39
53647;BME280;39550;52.230;5.194;2022-12-16T03:38:38;101110.69;;;-0.01;77.65
53647;BME280;39550;52.230;5.194;2022-12-16T03:41:05;101035.50;;;-0.48;77.63
53647;BME280;39550;52.230;5.194;2022-12-16T03:43:31;101062.09;;;-0.40;77.43
53647;BME280;39550;52.230;5.194;2022-12-16T03:45:59;101099.72;;;-0.16;77.39
53647;BME280;39550;52.230;5.194;2022-12-16T03:48:26;101130.94;;;-0.01;77.44
53647;BME280;39550;52.230;5.194;2022-12-16T03:50:52;101041.00;;;-0.55;77.45
53647;BME280;39550;52.230;5.194;2022-12-16T03:53:17;101044.47;;;-0.53;77.63
53647;BME280;39550;52.230;5.194;2022-12-16T03:55:45;101129.31;;;0.00;78.04
53647;BME280;39550;52.230;5.194;2022-12-16T03:58:11;100991.19;;;-0.86;77.75
53647;BME280;39550;52.230;5.194;2022-12-16T04:00:36;101138.56;;;-0.01;77.76
53647;BME280;39550;52.230;5.194;2022-12-16T04:03:02;101041.00;;;-0.55;77.55
53647;BME280;39550;52.230;5.194;2022-12-16T04:05:27;101137.69;;;-0.01;77.85
53647;BME280;39550;52.230;5.194;2022-12-16T04:07:53;101050.94;;;-0.58;77.24
53647;BME280;39550;52.230;5.194;2022-12-16T04:10:21;101035.41;;;-0.64;77.60
53647;BME280;39550;52.230;5.194;2022-12-16T04:13:08;101087.50;;;-0.38;77.72
53647;BME280;39550;52.230;5.194;2022-12-16T04:15:53;101097.88;;;-0.33;77.63
53647;BME280;39550;52.230;5.194;2022-12-16T04:18:39;101049.22;;;-0.59;77.50
53647;BME280;39550;52.230;5.194;2022-12-16T04:21:24;101121.97;;;-0.25;77.30
53647;BME280;39550;52.230;5.194;2022-12-16T04:24:26;101162.06;;;-0.03;77.76
53647;BME280;39550;52.230;5.194;2022-12-16T04:26:52;101034.72;;;-0.77;77.56
53647;BME280;39550;52.230;5.194;2022-12-16T04:29:37;101161.28;;;-0.02;77.56
53647;BME280;39550;52.230;5.194;2022-12-16T04:32:22;101113.06;;;-0.33;77.42
53647;BME280;39550;52.230;5.194;2022-12-16T04:34:48;101101.03;;;-0.38;77.81
53647;BME280;39550;52.230;5.194;2022-12-16T04:37:13;101124.50;;;-0.25;77.57
53647;BME280;39550;52.230;5.194;2022-12-16T04:39:57;101073.81;;;-0.57;77.70
53647;BME280;39550;52.230;5.194;2022-12-16T04:42:41;101161.81;;;-0.08;77.81
53647;BME280;39550;52.230;5.194;2022-12-16T04:45:25;101151.16;;;-0.17;77.25
53647;BME280;39550;52.230;5.194;2022-12-16T04:48:09;101091.78;;;-0.52;76.98
53647;BME280;39550;52.230;5.194;2022-12-16T04:50:53;101134.31;;;-0.31;77.42
53647;BME280;39550;52.230;5.194;2022-12-16T04:53:37;101176.38;;;-0.04;77.70
53647;BME280;39550;52.230;5.194;2022-12-16T04:56:21;101173.78;;;-0.05;77.53
53647;BME280;39550;52.230;5.194;2022-12-16T04:59:05;101175.41;;;-0.06;77.09
53647;BME280;39550;52.230;5.194;2022-12-16T05:01:49;101172.03;;;-0.06;77.73
53647;BME280;39550;52.230;5.194;2022-12-16T05:04:33;101144.00;;;-0.24;77.37
53647;BME280;39550;52.230;5.194;2022-12-16T05:07:17;101079.59;;;-0.59;77.19
53647;BME280;39550;52.230;5.194;2022-12-16T05:10:02;101144.00;;;-0.24;77.38
53647;BME280;39550;52.230;5.194;2022-12-16T05:12:46;101150.81;;;-0.23;77.59
53647;BME280;39550;52.230;5.194;2022-12-16T05:15:30;101163.81;;;-0.17;77.67
53647;BME280;39550;52.230;5.194;2022-12-16T05:18:15;101159.53;;;-0.18;77.44
53647;BME280;39550;52.230;5.194;2022-12-16T05:21:00;101187.13;;;-0.08;77.46
53647;BME280;39550;52.230;5.194;2022-12-16T05:23:45;101119.97;;;-0.46;77.32
53647;BME280;39550;52.230;5.194;2022-12-16T05:26:29;101155.88;;;-0.23;77.37
53647;BME280;39550;52.230;5.194;2022-12-16T05:29:14;101131.69;;;-0.48;77.42
53647;BME280;39550;52.230;5.194;2022-12-16T05:31:58;101171.84;;;-0.24;77.39
53647;BME280;39550;52.230;5.194;2022-12-16T05:34:42;101184.34;;;-0.12;77.02
53647;BME280;39550;52.230;5.194;2022-12-16T05:37:26;101177.91;;;-0.22;77.45
53647;BME280;39550;52.230;5.194;2022-12-16T05:40:10;101173.69;;;-0.22;77.12
53647;BME280;39550;52.230;5.194;2022-12-16T05:42:54;101202.16;;;-0.11;77.39
53647;BME280;39550;52.230;5.194;2022-12-16T05:45:38;101180.84;;;-0.29;77.22
53647;BME280;39550;52.230;5.194;2022-12-16T05:48:22;101160.94;;;-0.38;77.20
53647;BME280;39550;52.230;5.194;2022-12-16T05:51:06;101157.94;;;-0.46;77.09
53647;BME280;39550;52.230;5.194;2022-12-16T05:53:53;101147.50;;;-0.52;77.14
53647;BME280;39550;52.230;5.194;2022-12-16T05:56:37;101163.91;;;-0.45;77.62
53647;BME280;39550;52.230;5.194;2022-12-16T05:59:21;101184.97;;;-0.31;77.25
53647;BME280;39550;52.230;5.194;2022-12-16T06:02:05;101185.56;;;-0.36;77.17
53647;BME280;39550;52.230;5.194;2022-12-16T06:04:49;101181.09;;;-0.40;77.60
53647;BME280;39550;52.230;5.194;2022-12-16T06:07:33;101231.50;;;-0.14;77.17
53647;BME280;39550;52.230;5.194;2022-12-16T06:10:17;101202.69;;;-0.31;77.18
53647;BME280;39550;52.230;5.194;2022-12-16T06:13:01;101239.19;;;-0.13;77.28
53647;BME280;39550;52.230;5.194;2022-12-16T06:15:45;101239.19;;;-0.13;77.45
53647;BME280;39550;52.230;5.194;2022-12-16T06:18:29;101185.72;;;-0.47;77.49
53647;BME280;39550;52.230;5.194;2022-12-16T06:21:13;101210.88;;;-0.36;77.19
53647;BME280;39550;52.230;5.194;2022-12-16T06:23:57;101252.84;;;-0.11;77.24
53647;BME280;39550;52.230;5.194;2022-12-16T06:26:41;101255.38;;;-0.11;77.29
53647;BME280;39550;52.230;5.194;2022-12-16T06:29:25;101239.38;;;-0.25;77.14
53647;BME280;39550;52.230;5.194;2022-12-16T06:32:31;101239.97;;;-0.29;77.26
53647;BME280;39550;52.230;5.194;2022-12-16T06:35:15;101195.66;;;-0.50;77.37
53647;BME280;39550;52.230;5.194;2022-12-16T06:37:59;101252.72;;;-0.27;77.26
53647;BME280;39550;52.230;5.194;2022-12-16T06:40:43;101276.41;;;-0.12;77.40
53647;BME280;39550;52.230;5.194;2022-12-16T06:43:26;101238.13;;;-0.31;77.12
53647;BME280;39550;52.230;5.194;2022-12-16T06:46:10;101235.31;;;-0.36;77.39
53647;BME280;39550;52.230;5.194;2022-12-16T06:48:54;101284.78;;;-0.13;77.62
53647;BME280;39550;52.230;5.194;2022-12-16T06:51:41;101252.34;;;-0.33;77.05
53647;BME280;39550;52.230;5.194;2022-12-16T06:54:25;101283.75;;;-0.16;77.27
53647;BME280;39550;52.230;5.194;2022-12-16T06:57:23;101222.34;;;-0.56;76.77
53647;BME280;39550;52.230;5.194;2022-12-16T07:00:07;101244.03;;;-0.46;77.43
53647;BME280;39550;52.230;5.194;2022-12-16T07:02:52;101217.47;;;-0.67;77.30
53647;BME280;39550;52.230;5.194;2022-12-16T07:05:36;101288.34;;;-0.24;77.19
53647;BME280;39550;52.230;5.194;2022-12-16T07:08:20;101280.41;;;-0.30;76.83
53647;BME280;39550;52.230;5.194;2022-12-16T07:11:04;101300.31;;;-0.22;77.38
53647;BME280;39550;52.230;5.194;2022-12-16T07:13:48;101294.56;;;-0.19;77.58
53647;BME280;39550;52.230;5.194;2022-12-16T07:16:32;101296.72;;;-0.25;77.22
53647;BME280;39550;52.230;5.194;2022-12-16T07:19:16;101225.84;;;-0.69;77.57
53647;BME280;39550;52.230;5.194;2022-12-16T07:22:00;101285.28;;;-0.33;77.35
53647;BME280;39550;52.230;5.194;2022-12-16T07:24:44;101314.84;;;-0.19;77.27
53647;BME280;39550;52.230;5.194;2022-12-16T07:27:28;101297.16;;;-0.32;76.89
53647;BME280;39550;52.230;5.194;2022-12-16T07:30:12;101311.84;;;-0.27;77.41
53647;BME280;39550;52.230;5.194;2022-12-16T07:32:56;101287.38;;;-0.41;77.24
53647;BME280;39550;52.230;5.194;2022-12-16T07:35:42;101241.03;;;-0.69;77.09
53647;BME280;39550;52.230;5.194;2022-12-16T07:38:26;101317.59;;;-0.29;77.37
53647;BME280;39550;52.230;5.194;2022-12-16T07:41:10;101299.94;;;-0.43;77.51
53647;BME280;39550;52.230;5.194;2022-12-16T07:43:54;101333.16;;;-0.23;76.78
53647;BME280;39550;52.230;5.194;2022-12-16T07:46:38;101271.75;;;-0.62;77.21
53647;BME280;39550;52.230;5.194;2022-12-16T07:49:22;101301.31;;;-0.48;77.42
53647;BME280;39550;52.230;5.194;2022-12-16T07:52:05;101283.63;;;-0.61;77.22
53647;BME280;39550;52.230;5.194;2022-12-16T07:54:50;101274.19;;;-0.64;76.96
53647;BME280;39550;52.230;5.194;2022-12-16T07:57:36;101273.75;;;-0.72;77.28
53647;BME280;39550;52.230;5.194;2022-12-16T08:00:23;101365.09;;;-0.25;77.56
53647;BME280;39550;52.230;5.194;2022-12-16T08:06:15;101283.69;;;-0.75;77.30
53647;BME280;39550;52.230;5.194;2022-12-16T08:09:02;101293.09;;;-0.72;77.10
53647;BME280;39550;52.230;5.194;2022-12-16T08:11:46;101392.53;;;-0.18;76.79
53647;BME280;39550;52.230;5.194;2022-12-16T08:14:32;101305.56;;;-0.75;77.41
53647;BME280;39550;52.230;5.194;2022-12-16T08:17:16;101338.13;;;-0.53;77.06
53647;BME280;39550;52.230;5.194;2022-12-16T08:20:00;101350.34;;;-0.46;77.42
53647;BME280;39550;52.230;5.194;2022-12-16T08:22:44;101276.72;;;-0.92;76.87
53647;BME280;39550;52.230;5.194;2022-12-16T08:25:28;101271.66;;;-0.92;76.69
53647;BME280;39550;52.230;5.194;2022-12-16T08:28:12;101365.03;;;-0.40;77.14
53647;BME280;39550;52.230;5.194;2022-12-16T08:31:09;101276.22;;;-1.00;76.78
53647;BME280;39550;52.230;5.194;2022-12-16T08:34:22;101277.88;;;-1.00;76.59
53647;BME280;39550;52.230;5.194;2022-12-16T08:37:09;101349.03;;;-0.54;76.94
53647;BME280;39550;52.230;5.194;2022-12-16T08:39:56;101361.00;;;-0.52;76.98
53647;BME280;39550;52.230;5.194;2022-12-16T08:49:36;101428.22;;;-0.15;77.60
53647;BME280;39550;52.230;5.194;2022-12-16T08:52:41;101327.56;;;-0.74;77.20
53647;BME280;39550;52.230;5.194;2022-12-16T08:55:30;101349.84;;;-0.69;76.87
53647;BME280;39550;52.230;5.194;2022-12-16T08:58:14;101284.31;;;-1.06;76.89
53647;BME280;39550;52.230;5.194;2022-12-16T09:01:15;101394.38;;;-0.44;76.96
53647;BME280;39550;52.230;5.194;2022-12-16T09:04:05;101279.25;;;-1.06;76.63
53647;BME280;39550;52.230;5.194;2022-12-16T09:06:49;101383.88;;;-0.50;76.77
53647;BME280;39550;52.230;5.194;2022-12-16T09:09:33;101447.81;;;-0.12;76.72
53647;BME280;39550;52.230;5.194;2022-12-16T09:12:16;101451.97;;;-0.13;77.04
53647;BME280;39550;52.230;5.194;2022-12-16T09:15:00;101455.50;;;-0.11;76.92
53647;BME280;39550;52.230;5.194;2022-12-16T09:17:44;101453.03;;;-0.09;76.94
53647;BME280;39550;52.230;5.194;2022-12-16T09:20:28;101449.34;;;-0.14;76.94
53647;BME280;39550;52.230;5.194;2022-12-16T09:23:12;101453.22;;;-0.06;76.81
53647;BME280;39550;52.230;5.194;2022-12-16T09:25:56;101455.84;;;-0.05;76.64
53647;BME280;39550;52.230;5.194;2022-12-16T09:28:40;101467.75;;;-0.04;76.47
53647;BME280;39550;52.230;5.194;2022-12-16T09:31:24;101467.75;;;-0.04;76.49
53647;BME280;39550;52.230;5.194;2022-12-16T09:34:08;101470.28;;;-0.04;76.78
53647;BME280;39550;52.230;5.194;2022-12-16T09:36:52;101465.22;;;-0.04;76.58
53647;BME280;39550;52.230;5.194;2022-12-16T09:39:36;101471.03;;;-0.05;76.49
53647;BME280;39550;52.230;5.194;2022-12-16T09:42:40;101471.94;;;-0.04;76.43
53647;BME280;39550;52.230;5.194;2022-12-16T09:51:34;101495.69;;;-0.02;76.31
53647;BME280;39550;52.230;5.194;2022-12-16T09:54:22;101496.56;;;-0.02;76.74
53647;BME280;39550;52.230;5.194;2022-12-16T09:57:09;101499.09;;;-0.02;76.72
53647;BME280;39550;52.230;5.194;2022-12-16T09:59:57;101506.91;;;0.02;76.44
53647;BME280;39550;52.230;5.194;2022-12-16T10:02:45;101507.59;;;-0.01;76.36
53647;BME280;39550;52.230;5.194;2022-12-16T10:05:38;101508.63;;;0.03;76.21
53647;BME280;39550;52.230;5.194;2022-12-16T10:08:40;101513.72;;;0.03;76.64
53647;BME280;39550;52.230;5.194;2022-12-16T10:11:42;101512.16;;;0.05;76.82
53647;BME280;39550;52.230;5.194;2022-12-16T10:14:36;101515.47;;;0.04;76.68
53647;BME280;39550;52.230;5.194;2022-12-16T10:17:24;101517.22;;;0.05;76.55
53647;BME280;39550;52.230;5.194;2022-12-16T10:20:24;101524.16;;;0.07;76.56
53647;BME280;39550;52.230;5.194;2022-12-16T10:23:42;101517.50;;;0.09;76.59
53647;BME280;39550;52.230;5.194;2022-12-16T10:26:58;101516.72;;;0.10;76.49
53647;BME280;39550;52.230;5.194;2022-12-16T10:29:44;101527.63;;;0.09;76.96
53647;BME280;39550;52.230;5.194;2022-12-16T10:32:44;101526.94;;;0.12;76.42
53647;BME280;39550;52.230;5.194;2022-12-16T10:38:23;101526.19;;;0.13;76.28
53647;BME280;39550;52.230;5.194;2022-12-16T10:41:08;101530.25;;;0.11;76.49
53647;BME280;39550;52.230;5.194;2022-12-16T10:43:54;101527.72;;;0.11;76.45
53647;BME280;39550;52.230;5.194;2022-12-16T10:46:40;101533.00;;;0.14;76.58
53647;BME280;39550;52.230;5.194;2022-12-16T10:49:24;101520.44;;;0.15;76.73
53647;BME280;39550;52.230;5.194;2022-12-16T10:52:10;101528.81;;;0.14;76.22
53647;BME280;39550;52.230;5.194;2022-12-16T10:55:10;101531.44;;;0.16;76.34
53647;BME280;39550;52.230;5.194;2022-12-16T10:58:01;101528.13;;;0.17;76.15
53647;BME280;39550;52.230;5.194;2022-12-16T11:00:51;101530.75;;;0.19;76.47
53647;BME280;39550;52.230;5.194;2022-12-16T11:03:39;101528.31;;;0.20;76.04
53647;BME280;39550;52.230;5.194;2022-12-16T11:06:36;101524.09;;;0.21;76.49
53647;BME280;39550;52.230;5.194;2022-12-16T11:09:39;101535.13;;;0.21;76.39
53647;BME280;39550;52.230;5.194;2022-12-16T11:12:28;101532.59;;;0.21;76.43
53647;BME280;39550;52.230;5.194;2022-12-16T11:15:28;101525.00;;;0.21;76.56
53647;BME280;39550;52.230;5.194;2022-12-16T11:18:20;101542.13;;;0.25;76.55
53647;BME280;39550;52.230;5.194;2022-12-16T11:27:02;101537.25;;;0.28;76.34
53647;BME280;39550;52.230;5.194;2022-12-16T11:29:58;101539.19;;;0.32;76.18
53647;BME280;39550;52.230;5.194;2022-12-16T11:32:51;101539.19;;;0.32;76.00
53647;BME280;39550;52.230;5.194;2022-12-16T11:35:40;101541.91;;;0.36;75.82
53647;BME280;39550;52.230;5.194;2022-12-16T11:38:31;101542.69;;;0.34;76.35
53647;BME280;39550;52.230;5.194;2022-12-16T11:41:31;101547.97;;;0.38;76.05
53647;BME280;39550;52.230;5.194;2022-12-16T11:44:22;101555.75;;;0.41;75.73
53647;BME280;39550;52.230;5.194;2022-12-16T11:47:20;101556.69;;;0.43;76.22
53647;BME280;39550;52.230;5.194;2022-12-16T11:50:13;101555.16;;;0.45;76.29
53647;BME280;39550;52.230;5.194;2022-12-16T11:52:59;101555.19;;;0.60;75.61
53647;BME280;39550;52.230;5.194;2022-12-16T11:55:47;101548.44;;;0.60;75.39
53647;BME280;39550;52.230;5.194;2022-12-16T11:58:44;101555.88;;;0.57;75.77
53647;BME280;39550;52.230;5.194;2022-12-16T12:01:41;101553.56;;;0.47;75.81
53647;BME280;39550;52.230;5.194;2022-12-16T12:04:28;101553.78;;;0.50;75.96
53647;BME280;39550;52.230;5.194;2022-12-16T12:16:18;101564.44;;;0.59;75.48
53647;BME280;39550;52.230;5.194;2022-12-16T12:19:10;101561.13;;;0.60;76.15
53647;BME280;39550;52.230;5.194;2022-12-16T12:22:02;101559.41;;;0.74;75.19
53647;BME280;39550;52.230;5.194;2022-12-16T12:25:03;101558.28;;;0.84;74.56
53647;BME280;39550;52.230;5.194;2022-12-16T12:27:58;101552.97;;;0.79;75.07
53647;BME280;39550;52.230;5.194;2022-12-16T12:31:39;101565.00;;;0.68;75.06
53647;BME280;39550;52.230;5.194;2022-12-16T12:34:28;101567.28;;;0.64;75.79
53647;BME280;39550;52.230;5.194;2022-12-16T12:37:22;101562.91;;;0.61;75.55
53647;BME280;39550;52.230;5.194;2022-12-16T12:46:32;101568.47;;;0.56;76.38
53647;BME280;39550;52.230;5.194;2022-12-16T12:49:50;101575.50;;;0.60;76.35
53647;BME280;39550;52.230;5.194;2022-12-16T12:53:13;101575.56;;;0.61;76.23
53647;BME280;39550;52.230;5.194;2022-12-16T12:58:44;101578.97;;;0.62;75.89
53647;BME280;39550;52.230;5.194;2022-12-16T13:01:30;101584.94;;;0.62;76.12
53647;BME280;39550;52.230;5.194;2022-12-16T13:04:19;101586.66;;;0.63;76.09
53647;BME280;39550;52.230;5.194;2022-12-16T13:07:04;101588.44;;;0.64;76.14
53647;BME280;39550;52.230;5.194;2022-12-16T13:15:58;101591.16;;;0.67;76.02
53647;BME280;39550;52.230;5.194;2022-12-16T13:18:42;101586.84;;;0.66;76.01
53647;BME280;39550;52.230;5.194;2022-12-16T13:24:42;101597.97;;;0.68;76.23
53647;BME280;39550;52.230;5.194;2022-12-16T13:27:28;101598.75;;;0.67;75.91
53647;BME280;39550;52.230;5.194;2022-12-16T13:33:01;101604.50;;;0.65;76.34
53647;BME280;39550;52.230;5.194;2022-12-16T13:35:57;101597.81;;;0.65;76.16
53647;BME280;39550;52.230;5.194;2022-12-16T13:38:53;101598.59;;;0.64;76.32
53647;BME280;39550;52.230;5.194;2022-12-16T13:50:41;101610.31;;;0.62;76.22
53647;BME280;39550;52.230;5.194;2022-12-16T13:53:41;101603.47;;;0.61;76.13
53647;BME280;39550;52.230;5.194;2022-12-16T13:56:33;101608.53;;;0.61;76.72
53647;BME280;39550;52.230;5.194;2022-12-16T13:59:23;101617.78;;;0.61;76.52
53647;BME280;39550;52.230;5.194;2022-12-16T14:02:30;101615.38;;;0.62;76.32
53647;BME280;39550;52.230;5.194;2022-12-16T14:05:23;101622.19;;;0.63;76.19
53647;BME280;39550;52.230;5.194;2022-12-16T14:08:19;101625.53;;;0.62;76.73
53647;BME280;39550;52.230;5.194;2022-12-16T14:11:10;101629.88;;;0.65;76.51
53647;BME280;39550;52.230;5.194;2022-12-16T14:14:07;101635.84;;;0.65;76.26
53647;BME280;39550;52.230;5.194;2022-12-16T14:16:58;101639.94;;;0.63;76.26
53647;BME280;39550;52.230;5.194;2022-12-16T14:22:53;101645.81;;;0.62;76.54
53647;BME280;39550;52.230;5.194;2022-12-16T14:25:43;101649.13;;;0.61;76.37
53647;BME280;39550;52.230;5.194;2022-12-16T14:28:31;101657.50;;;0.60;76.42
53647;BME280;39550;52.230;5.194;2022-12-16T14:31:22;101656.66;;;0.60;76.66
53647;BME280;39550;52.230;5.194;2022-12-16T14:34:28;101657.50;;;0.60;76.68
53647;BME280;39550;52.230;5.194;2022-12-16T14:37:27;101670.19;;;0.60;76.62
53647;BME280;39550;52.230;5.194;2022-12-16T14:40:19;101670.97;;;0.59;76.69
53647;BME280;39550;52.230;5.194;2022-12-16T14:43:13;101676.84;;;0.58;76.66
53647;BME280;39550;52.230;5.194;2022-12-16T14:45:58;101670.78;;;0.56;76.42
53647;BME280;39550;52.230;5.194;2022-12-16T14:48:45;101678.66;;;0.61;76.64
53647;BME280;39550;52.230;5.194;2022-12-16T14:51:35;101678.66;;;0.61;76.56
53647;BME280;39550;52.230;5.194;2022-12-16T14:57:21;101699.84;;;0.61;76.82
53647;BME280;39550;52.230;5.194;2022-12-16T15:03:00;101702.97;;;0.57;76.50
53647;BME280;39550;52.230;5.194;2022-12-16T15:05:46;101696.16;;;0.56;76.37
53647;BME280;39550;52.230;5.194;2022-12-16T15:08:32;101702.81;;;0.54;76.67
53647;BME280;39550;52.230;5.194;2022-12-16T15:11:20;101711.38;;;0.56;76.73
53647;BME280;39550;52.230;5.194;2022-12-16T15:14:08;101705.34;;;0.54;76.61
53647;BME280;39550;52.230;5.194;2022-12-16T15:16:54;101711.19;;;0.53;76.69
53647;BME280;39550;52.230;5.194;2022-12-16T15:19:45;101716.94;;;0.50;76.69
53647;BME280;39550;52.230;5.194;2022-12-16T15:22:31;101728.84;;;0.52;77.12
53647;BME280;39550;52.230;5.194;2022-12-16T15:25:25;101731.28;;;0.50;77.31
53647;BME280;39550;52.230;5.194;2022-12-16T15:28:39;101733.00;;;0.51;77.30
53647;BME280;39550;52.230;5.194;2022-12-16T15:31:36;101737.13;;;0.49;77.13
53647;BME280;39550;52.230;5.194;2022-12-16T15:34:23;101743.06;;;0.49;77.18
53647;BME280;39550;52.230;5.194;2022-12-16T15:37:29;101744.72;;;0.49;77.47
53647;BME280;39550;52.230;5.194;2022-12-16T15:43:15;101748.03;;;0.48;77.14
53647;BME280;39550;52.230;5.194;2022-12-16T15:46:02;101757.31;;;0.47;77.32
53647;BME280;39550;52.230;5.194;2022-12-16T15:48:49;101755.66;;;0.48;77.35
53647;BME280;39550;52.230;5.194;2022-12-16T15:51:46;101758.97;;;0.47;77.28
53647;BME280;39550;52.230;5.194;2022-12-16T15:54:30;101761.41;;;0.45;76.99
53647;BME280;39550;52.230;5.194;2022-12-16T15:57:26;101769.91;;;0.46;76.93
53647;BME280;39550;52.230;5.194;2022-12-16T16:00:30;101780.06;;;0.46;77.29
53647;BME280;39550;52.230;5.194;2022-12-16T16:06:03;101785.13;;;0.46;77.34
53647;BME280;39550;52.230;5.194;2022-12-16T16:08:51;101776.16;;;0.38;77.28
53647;BME280;39550;52.230;5.194;2022-12-16T16:11:35;101776.53;;;0.44;77.48